sensor_id;sensor_type;location;lat;lon;timestamp;pressure;altitude;pressure_sealevel;temperature;humidity
49194;BME280;35029;50.804;12.866;2023-04-04T00:00:09;98779.88;;;0.73;81.79
49194;BME280;35029;50.804;12.866;2023-04-04T00:02:36;98794.69;;;0.86;81.76
49194;BME280;35029;50.804;12.866;2023-04-04T00:05:03;98790.63;;;0.81;82.76
49194;BME280;35029;50.804;12.866;2023-04-04T00:07:28;98776.75;;;0.81;82.12
49194;BME280;35029;50.804;12.866;2023-04-04T00:09:54;98788.88;;;0.82;83.20
49194;BME280;35029;50.804;12.866;2023-04-04T00:12:19;98793.97;;;0.83;85.40
49194;BME280;35029;50.804;12.866;2023-04-04T00:14:45;98769.31;;;0.75;84.78
49194;BME280;35029;50.804;12.866;2023-04-04T00:17:11;98784.25;;;0.86;83.81
49194;BME280;35029;50.804;12.866;2023-04-04T00:19:36;98780.91;;;0.83;83.13
49194;BME280;35029;50.804;12.866;2023-04-04T00:22:02;98780.59;;;0.88;84.01
49194;BME280;35029;50.804;12.866;2023-04-04T00:24:28;98761.09;;;0.81;85.25
49194;BME280;35029;50.804;12.866;2023-04-04T00:26:54;98767.75;;;0.85;84.06
49194;BME280;35029;50.804;12.866;2023-04-04T00:29:19;98774.31;;;0.91;85.07
49194;BME280;35029;50.804;12.866;2023-04-04T00:31:45;98760.63;;;0.87;84.29
49194;BME280;35029;50.804;12.866;2023-04-04T00:34:10;98758.88;;;0.75;83.81
49194;BME280;35029;50.804;12.866;2023-04-04T00:36:36;98768.81;;;0.82;84.69
49194;BME280;35029;50.804;12.866;2023-04-04T00:39:02;98769.75;;;0.81;84.48
49194;BME280;35029;50.804;12.866;2023-04-04T00:41:28;98756.09;;;0.78;84.18
49194;BME280;35029;50.804;12.866;2023-04-04T00:43:54;98769.97;;;0.78;85.03
49194;BME280;35029;50.804;12.866;2023-04-04T00:46:20;98762.25;;;0.77;84.41
49194;BME280;35029;50.804;12.866;2023-04-04T00:48:47;98766.72;;;0.75;84.59
49194;BME280;35029;50.804;12.866;2023-04-04T00:51:12;98766.53;;;0.78;86.12
49194;BME280;35029;50.804;12.866;2023-04-04T00:53:38;98756.63;;;0.70;86.00
49194;BME280;35029;50.804;12.866;2023-04-04T00:56:04;98761.38;;;0.76;86.49
49194;BME280;35029;50.804;12.866;2023-04-04T00:58:32;98757.25;;;0.74;86.35
49194;BME280;35029;50.804;12.866;2023-04-04T01:00:58;98760.69;;;0.74;86.93
49194;BME280;35029;50.804;12.866;2023-04-04T01:03:25;98757.84;;;0.77;86.63
49194;BME280;35029;50.804;12.866;2023-04-04T01:05:53;98762.25;;;0.77;87.25
49194;BME280;35029;50.804;12.866;2023-04-04T01:08:23;98764.97;;;0.75;86.98
49194;BME280;35029;50.804;12.866;2023-04-04T01:10:50;98758.88;;;0.75;88.43
49194;BME280;35029;50.804;12.866;2023-04-04T01:13:17;98763.91;;;0.78;87.83
49194;BME280;35029;50.804;12.866;2023-04-04T01:15:43;98750.88;;;0.65;87.66
49194;BME280;35029;50.804;12.866;2023-04-04T01:18:10;98762.66;;;0.71;87.01
49194;BME280;35029;50.804;12.866;2023-04-04T01:20:43;98757.31;;;0.72;87.84
49194;BME280;35029;50.804;12.866;2023-04-04T01:23:11;98753.56;;;0.76;88.25
49194;BME280;35029;50.804;12.866;2023-04-04T01:25:37;98747.09;;;0.82;88.45
49194;BME280;35029;50.804;12.866;2023-04-04T01:28:07;98742.81;;;0.81;87.23
49194;BME280;35029;50.804;12.866;2023-04-04T01:30:35;98740.44;;;0.78;87.87
49194;BME280;35029;50.804;12.866;2023-04-04T01:33:24;98737.41;;;0.71;88.53
49194;BME280;35029;50.804;12.866;2023-04-04T01:36:24;98736.13;;;0.77;88.49
49194;BME280;35029;50.804;12.866;2023-04-04T01:38:53;98734.88;;;0.82;88.24
49194;BME280;35029;50.804;12.866;2023-04-04T01:41:24;98729.88;;;0.79;87.99
49194;BME280;35029;50.804;12.866;2023-04-04T01:43:55;98726.00;;;0.72;87.84
49194;BME280;35029;50.804;12.866;2023-04-04T01:46:22;98721.88;;;0.70;87.77
49194;BME280;35029;50.804;12.866;2023-04-04T01:48:48;98724.13;;;0.74;89.29
49194;BME280;35029;50.804;12.866;2023-04-04T01:51:18;98716.72;;;0.68;89.67
49194;BME280;35029;50.804;12.866;2023-04-04T01:53:45;98725.69;;;0.77;88.32
49194;BME280;35029;50.804;12.866;2023-04-04T01:56:10;98728.84;;;0.69;89.84
49194;BME280;35029;50.804;12.866;2023-04-04T01:58:36;98720.19;;;0.69;90.11
49194;BME280;35029;50.804;12.866;2023-04-04T02:01:02;98724.38;;;0.58;89.45
49194;BME280;35029;50.804;12.866;2023-04-04T02:03:27;98726.38;;;0.55;89.32
49194;BME280;35029;50.804;12.866;2023-04-04T02:05:53;98725.31;;;0.57;90.09
49194;BME280;35029;50.804;12.866;2023-04-04T02:08:18;98720.00;;;0.59;89.60
49194;BME280;35029;50.804;12.866;2023-04-04T02:10:50;98719.91;;;0.60;90.58
49194;BME280;35029;50.804;12.866;2023-04-04T02:13:16;98721.66;;;0.60;90.84
49194;BME280;35029;50.804;12.866;2023-04-04T02:15:44;98703.84;;;0.54;90.43
49194;BME280;35029;50.804;12.866;2023-04-04T02:18:09;98722.41;;;0.62;90.61
49194;BME280;35029;50.804;12.866;2023-04-04T02:20:35;98715.50;;;0.61;91.80
49194;BME280;35029;50.804;12.866;2023-04-04T02:23:00;98715.28;;;0.64;90.83
49194;BME280;35029;50.804;12.866;2023-04-04T02:25:26;98692.19;;;0.46;90.80
49194;BME280;35029;50.804;12.866;2023-04-04T02:27:52;98723.56;;;0.58;90.39
49194;BME280;35029;50.804;12.866;2023-04-04T02:30:19;98682.97;;;0.41;91.51
49194;BME280;35029;50.804;12.866;2023-04-04T02:32:44;98715.38;;;0.62;91.81
49194;BME280;35029;50.804;12.866;2023-04-04T02:35:15;98715.16;;;0.65;92.76
49194;BME280;35029;50.804;12.866;2023-04-04T02:37:44;98693.81;;;0.60;91.63
49194;BME280;35029;50.804;12.866;2023-04-04T02:40:17;98714.97;;;0.69;91.14
49194;BME280;35029;50.804;12.866;2023-04-04T02:42:58;98707.97;;;0.69;90.84
49194;BME280;35029;50.804;12.866;2023-04-04T02:45:40;98708.41;;;0.63;90.38
49194;BME280;35029;50.804;12.866;2023-04-04T02:48:17;98701.63;;;0.60;91.66
49194;BME280;35029;50.804;12.866;2023-04-04T02:50:46;98706.34;;;0.55;90.99
49194;BME280;35029;50.804;12.866;2023-04-04T02:53:14;98706.00;;;0.60;90.97
49194;BME280;35029;50.804;12.866;2023-04-04T02:55:40;98711.56;;;0.55;91.35
49194;BME280;35029;50.804;12.866;2023-04-04T02:58:09;98698.84;;;0.50;91.41
49194;BME280;35029;50.804;12.866;2023-04-04T03:00:34;98684.03;;;0.38;91.66
49194;BME280;35029;50.804;12.866;2023-04-04T03:03:00;98703.66;;;0.44;91.67
49194;BME280;35029;50.804;12.866;2023-04-04T03:05:32;98707.84;;;0.46;92.25
49194;BME280;35029;50.804;12.866;2023-04-04T03:07:58;98694.88;;;0.45;91.68
49194;BME280;35029;50.804;12.866;2023-04-04T03:10:26;98704.66;;;0.54;90.80
49194;BME280;35029;50.804;12.866;2023-04-04T03:12:54;98697.47;;;0.45;91.66
49194;BME280;35029;50.804;12.866;2023-04-04T03:15:21;98685.47;;;0.42;91.20
49194;BME280;35029;50.804;12.866;2023-04-04T03:17:47;98679.47;;;0.29;91.66
49194;BME280;35029;50.804;12.866;2023-04-04T03:20:14;98691.84;;;0.38;92.39
49194;BME280;35029;50.804;12.866;2023-04-04T03:22:40;98691.38;;;0.33;92.07
49194;BME280;35029;50.804;12.866;2023-04-04T03:25:06;98694.38;;;0.40;93.49
49194;BME280;35029;50.804;12.866;2023-04-04T03:27:33;98671.53;;;0.30;92.90
49194;BME280;35029;50.804;12.866;2023-04-04T03:29:59;98671.66;;;0.29;93.92
49194;BME280;35029;50.804;12.866;2023-04-04T03:32:28;98683.09;;;0.39;92.55
49194;BME280;35029;50.804;12.866;2023-04-04T03:34:54;98683.22;;;0.38;93.42
49194;BME280;35029;50.804;12.866;2023-04-04T03:37:20;98673.84;;;0.22;92.74
49194;BME280;35029;50.804;12.866;2023-04-04T03:39:47;98685.19;;;0.34;93.76
49194;BME280;35029;50.804;12.866;2023-04-04T03:42:13;98679.16;;;0.33;93.62
49194;BME280;35029;50.804;12.866;2023-04-04T03:44:39;98685.19;;;0.34;93.51
49194;BME280;35029;50.804;12.866;2023-04-04T03:47:07;98678.31;;;0.33;94.42
49194;BME280;35029;50.804;12.866;2023-04-04T03:49:34;98675.19;;;0.28;94.64
49194;BME280;35029;50.804;12.866;2023-04-04T03:51:59;98667.47;;;0.26;94.04
49194;BME280;35029;50.804;12.866;2023-04-04T03:54:29;98672.06;;;0.36;94.56
49194;BME280;35029;50.804;12.866;2023-04-04T03:56:56;98672.78;;;0.38;94.30
49194;BME280;35029;50.804;12.866;2023-04-04T03:59:22;98676.19;;;0.38;94.60
49194;BME280;35029;50.804;12.866;2023-04-04T04:01:47;98674.97;;;0.31;93.09
49194;BME280;35029;50.804;12.866;2023-04-04T04:04:13;98670.63;;;0.31;94.00
49194;BME280;35029;50.804;12.866;2023-04-04T04:06:39;98670.91;;;0.27;94.79
49194;BME280;35029;50.804;12.866;2023-04-04T04:09:05;98670.28;;;0.36;95.42
49194;BME280;35029;50.804;12.866;2023-04-04T04:11:30;98667.22;;;0.42;94.94
49194;BME280;35029;50.804;12.866;2023-04-04T04:13:56;98669.63;;;0.45;95.04
49194;BME280;35029;50.804;12.866;2023-04-04T04:16:21;98667.72;;;0.47;95.16
49194;BME280;35029;50.804;12.866;2023-04-04T04:18:49;98655.16;;;0.41;95.82
49194;BME280;35029;50.804;12.866;2023-04-04T04:21:22;98660.44;;;0.53;95.20
49194;BME280;35029;50.804;12.866;2023-04-04T04:23:48;98667.19;;;0.55;95.08
49194;BME280;35029;50.804;12.866;2023-04-04T04:26:14;98668.88;;;0.56;95.11
49194;BME280;35029;50.804;12.866;2023-04-04T04:28:40;98675.03;;;0.55;94.83
49194;BME280;35029;50.804;12.866;2023-04-04T04:31:10;98665.88;;;0.49;95.04
49194;BME280;35029;50.804;12.866;2023-04-04T04:33:43;98665.63;;;0.53;95.35
49194;BME280;35029;50.804;12.866;2023-04-04T04:36:09;98647.03;;;0.33;94.70
49194;BME280;35029;50.804;12.866;2023-04-04T04:38:47;98665.25;;;0.46;94.85
49194;BME280;35029;50.804;12.866;2023-04-04T04:41:14;98668.59;;;0.48;94.38
49194;BME280;35029;50.804;12.866;2023-04-04T04:43:44;98660.88;;;0.46;95.06
49194;BME280;35029;50.804;12.866;2023-04-04T04:46:10;98672.84;;;0.49;95.45
49194;BME280;35029;50.804;12.866;2023-04-04T04:48:35;98668.47;;;0.49;95.18
49194;BME280;35029;50.804;12.866;2023-04-04T04:51:02;98668.47;;;0.49;95.04
49194;BME280;35029;50.804;12.866;2023-04-04T04:53:42;98654.50;;;0.38;95.29
49194;BME280;35029;50.804;12.866;2023-04-04T04:56:08;98664.41;;;0.45;95.37
49194;BME280;35029;50.804;12.866;2023-04-04T04:58:35;98672.13;;;0.47;95.43
49194;BME280;35029;50.804;12.866;2023-04-04T05:01:03;98676.13;;;0.40;94.78
49194;BME280;35029;50.804;12.866;2023-04-04T05:03:38;98669.94;;;0.41;95.95
49194;BME280;35029;50.804;12.866;2023-04-04T05:06:06;98675.59;;;0.35;94.81
49194;BME280;35029;50.804;12.866;2023-04-04T05:08:33;98678.81;;;0.38;94.77
49194;BME280;35029;50.804;12.866;2023-04-04T05:11:04;98680.47;;;0.39;93.95
49194;BME280;35029;50.804;12.866;2023-04-04T05:13:30;98681.53;;;0.37;95.54
49194;BME280;35029;50.804;12.866;2023-04-04T05:15:56;98686.34;;;0.43;95.73
49194;BME280;35029;50.804;12.866;2023-04-04T05:18:23;98694.88;;;0.45;95.64
49194;BME280;35029;50.804;12.866;2023-04-04T05:20:53;98696.44;;;0.47;94.76
49194;BME280;35029;50.804;12.866;2023-04-04T05:23:20;98624.97;;;-0.13;94.95
49194;BME280;35029;50.804;12.866;2023-04-04T05:25:50;98697.63;;;0.30;95.18
49194;BME280;35029;50.804;12.866;2023-04-04T05:28:18;98701.16;;;0.29;94.60
49194;BME280;35029;50.804;12.866;2023-04-04T05:30:46;98701.06;;;0.31;96.18
49194;BME280;35029;50.804;12.866;2023-04-04T05:33:18;98705.13;;;0.35;95.64
49194;BME280;35029;50.804;12.866;2023-04-04T05:35:54;98702.09;;;0.41;95.83
49194;BME280;35029;50.804;12.866;2023-04-04T05:38:20;98710.63;;;0.43;95.51
49194;BME280;35029;50.804;12.866;2023-04-04T05:40:55;98677.47;;;0.32;95.98
49194;BME280;35029;50.804;12.866;2023-04-04T05:43:22;98703.84;;;0.41;95.47
49194;BME280;35029;50.804;12.866;2023-04-04T05:45:58;98702.94;;;0.29;93.68
49194;BME280;35029;50.804;12.866;2023-04-04T05:48:26;98693.97;;;0.20;94.90
49194;BME280;35029;50.804;12.866;2023-04-04T05:50:52;98710.03;;;0.27;94.87
49194;BME280;35029;50.804;12.866;2023-04-04T05:53:25;98708.44;;;0.50;99.18
49194;BME280;35029;50.804;12.866;2023-04-04T05:55:51;98710.28;;;0.61;97.05
49194;BME280;35029;50.804;12.866;2023-04-04T05:58:18;98674.75;;;0.34;96.62
49194;BME280;35029;50.804;12.866;2023-04-04T06:00:50;98722.81;;;0.56;95.28
49194;BME280;35029;50.804;12.866;2023-04-04T06:03:17;98713.41;;;0.66;95.43
49194;BME280;35029;50.804;12.866;2023-04-04T06:05:43;98707.56;;;0.62;94.42
49194;BME280;35029;50.804;12.866;2023-04-04T06:08:13;98713.59;;;0.76;93.65
49194;BME280;35029;50.804;12.866;2023-04-04T06:10:39;98717.97;;;0.75;93.28
49194;BME280;35029;50.804;12.866;2023-04-04T06:13:04;98718.09;;;0.74;93.49
49194;BME280;35029;50.804;12.866;2023-04-04T06:15:31;98715.78;;;0.82;93.14
49194;BME280;35029;50.804;12.866;2023-04-04T06:17:57;98720.25;;;0.80;92.41
49194;BME280;35029;50.804;12.866;2023-04-04T06:20:23;98720.47;;;0.77;92.58
49194;BME280;35029;50.804;12.866;2023-04-04T06:22:50;98717.03;;;0.76;92.41
49194;BME280;35029;50.804;12.866;2023-04-04T06:25:16;98713.53;;;0.64;93.37
49194;BME280;35029;50.804;12.866;2023-04-04T06:27:42;98698.53;;;0.42;92.45
49194;BME280;35029;50.804;12.866;2023-04-04T06:30:08;98708.41;;;0.63;93.57
49194;BME280;35029;50.804;12.866;2023-04-04T06:32:35;98699.63;;;0.64;93.61
49194;BME280;35029;50.804;12.866;2023-04-04T06:35:02;98716.03;;;0.66;92.36
49194;BME280;35029;50.804;12.866;2023-04-04T06:37:42;98727.16;;;0.81;93.34
49194;BME280;35029;50.804;12.866;2023-04-04T06:40:14;98718.94;;;0.98;94.66
49194;BME280;35029;50.804;12.866;2023-04-04T06:42:48;98689.50;;;0.96;93.29
49194;BME280;35029;50.804;12.866;2023-04-04T06:45:15;98708.59;;;1.21;91.28
49194;BME280;35029;50.804;12.866;2023-04-04T06:47:42;98709.28;;;1.12;89.63
49194;BME280;35029;50.804;12.866;2023-04-04T06:50:08;98713.78;;;1.10;90.50
49194;BME280;35029;50.804;12.866;2023-04-04T06:52:33;98719.16;;;1.20;92.17
49194;BME280;35029;50.804;12.866;2023-04-04T06:55:01;98710.44;;;1.32;89.89
49194;BME280;35029;50.804;12.866;2023-04-04T06:57:27;98715.75;;;1.30;88.87
49194;BME280;35029;50.804;12.866;2023-04-04T06:59:52;98713.66;;;1.35;90.12
49194;BME280;35029;50.804;12.866;2023-04-04T07:02:18;98710.50;;;1.55;90.18
49194;BME280;35029;50.804;12.866;2023-04-04T07:04:44;98716.34;;;1.58;86.41
49194;BME280;35029;50.804;12.866;2023-04-04T07:07:10;98708.88;;;1.65;87.17
49194;BME280;35029;50.804;12.866;2023-04-04T07:09:36;98709.19;;;1.49;85.65
49194;BME280;35029;50.804;12.866;2023-04-04T07:12:02;98707.16;;;1.52;85.44
49194;BME280;35029;50.804;12.866;2023-04-04T07:14:28;98693.41;;;1.50;86.13
49194;BME280;35029;50.804;12.866;2023-04-04T07:16:54;98712.31;;;1.65;85.47
49194;BME280;35029;50.804;12.866;2023-04-04T07:19:19;98698.75;;;1.49;85.03
49194;BME280;35029;50.804;12.866;2023-04-04T07:21:48;98699.00;;;1.57;86.02
49194;BME280;35029;50.804;12.866;2023-04-04T07:24:14;98719.81;;;1.70;83.61
49194;BME280;35029;50.804;12.866;2023-04-04T07:26:39;98714.34;;;1.73;85.22
49194;BME280;35029;50.804;12.866;2023-04-04T07:29:05;98715.53;;;1.69;83.42
49194;BME280;35029;50.804;12.866;2023-04-04T07:31:31;98717.13;;;1.83;83.39
49194;BME280;35029;50.804;12.866;2023-04-04T07:33:56;98722.19;;;1.73;80.33
49194;BME280;35029;50.804;12.866;2023-04-04T07:36:22;98719.75;;;1.83;82.76
49194;BME280;35029;50.804;12.866;2023-04-04T07:38:48;98694.28;;;1.62;81.99
49194;BME280;35029;50.804;12.866;2023-04-04T07:41:13;98711.94;;;1.59;81.14
49194;BME280;35029;50.804;12.866;2023-04-04T07:43:39;98720.66;;;1.71;81.35
49194;BME280;35029;50.804;12.866;2023-04-04T07:46:04;98728.03;;;1.77;82.23
49194;BME280;35029;50.804;12.866;2023-04-04T07:48:30;98713.91;;;1.79;81.64
49194;BME280;35029;50.804;12.866;2023-04-04T07:50:55;98712.97;;;2.03;81.33
49194;BME280;35029;50.804;12.866;2023-04-04T07:53:21;98703.72;;;2.22;79.44
49194;BME280;35029;50.804;12.866;2023-04-04T07:55:47;98714.78;;;2.36;76.64
49194;BME280;35029;50.804;12.866;2023-04-04T07:58:13;98708.13;;;2.32;76.80
49194;BME280;35029;50.804;12.866;2023-04-04T08:00:38;98713.94;;;2.59;75.24
49194;BME280;35029;50.804;12.866;2023-04-04T08:03:04;98706.91;;;2.70;72.50
49194;BME280;35029;50.804;12.866;2023-04-04T08:05:29;98708.59;;;2.72;75.06
49194;BME280;35029;50.804;12.866;2023-04-04T08:07:55;98713.22;;;2.68;71.30
49194;BME280;35029;50.804;12.866;2023-04-04T08:10:21;98710.56;;;2.79;73.00
49194;BME280;35029;50.804;12.866;2023-04-04T08:12:47;98694.19;;;2.66;73.87
49194;BME280;35029;50.804;12.866;2023-04-04T08:15:13;98703.09;;;3.18;73.46
49194;BME280;35029;50.804;12.866;2023-04-04T08:17:39;98711.53;;;3.54;67.07
49194;BME280;35029;50.804;12.866;2023-04-04T08:20:06;98711.16;;;3.27;63.78
49194;BME280;35029;50.804;12.866;2023-04-04T08:22:32;98702.88;;;3.10;63.29
49194;BME280;35029;50.804;12.866;2023-04-04T08:24:58;98702.72;;;2.79;65.03
49194;BME280;35029;50.804;12.866;2023-04-04T08:27:23;98697.63;;;2.66;66.72
49194;BME280;35029;50.804;12.866;2023-04-04T08:29:49;98698.00;;;2.73;66.23
49194;BME280;35029;50.804;12.866;2023-04-04T08:32:14;98679.44;;;2.65;66.70
49194;BME280;35029;50.804;12.866;2023-04-04T08:34:40;98694.41;;;2.74;67.48
49194;BME280;35029;50.804;12.866;2023-04-04T08:37:07;98703.16;;;3.07;66.79
49194;BME280;35029;50.804;12.866;2023-04-04T08:39:33;98711.75;;;3.30;63.34
49194;BME280;35029;50.804;12.866;2023-04-04T08:42:03;98710.75;;;3.10;61.11
49194;BME280;35029;50.804;12.866;2023-04-04T08:44:31;98680.56;;;2.95;59.77
49194;BME280;35029;50.804;12.866;2023-04-04T08:47:02;98711.34;;;3.14;60.85
49194;BME280;35029;50.804;12.866;2023-04-04T08:49:36;98706.44;;;3.20;59.91
49194;BME280;35029;50.804;12.866;2023-04-04T08:52:02;98701.00;;;3.12;62.55
49194;BME280;35029;50.804;12.866;2023-04-04T08:54:33;98703.16;;;2.96;59.35
49194;BME280;35029;50.804;12.866;2023-04-04T08:56:59;98701.06;;;2.78;58.73
49194;BME280;35029;50.804;12.866;2023-04-04T08:59:26;98709.66;;;2.69;58.56
49194;BME280;35029;50.804;12.866;2023-04-04T09:02:01;98706.06;;;2.81;57.37
49194;BME280;35029;50.804;12.866;2023-04-04T09:04:29;98700.72;;;2.72;54.83
49194;BME280;35029;50.804;12.866;2023-04-04T09:06:57;98695.41;;;3.06;59.02
49194;BME280;35029;50.804;12.866;2023-04-04T09:09:23;98696.72;;;3.32;59.93
49194;BME280;35029;50.804;12.866;2023-04-04T09:11:49;98691.88;;;3.28;57.82
49194;BME280;35029;50.804;12.866;2023-04-04T09:14:17;98692.47;;;3.31;58.51
49194;BME280;35029;50.804;12.866;2023-04-04T09:16:45;98696.84;;;3.31;58.31
49194;BME280;35029;50.804;12.866;2023-04-04T09:19:11;98687.44;;;3.28;56.06
49194;BME280;35029;50.804;12.866;2023-04-04T09:21:37;98694.75;;;3.25;55.88
49194;BME280;35029;50.804;12.866;2023-04-04T09:24:05;98697.44;;;3.02;56.43
49194;BME280;35029;50.804;12.866;2023-04-04T09:26:57;98692.19;;;3.02;58.13
49194;BME280;35029;50.804;12.866;2023-04-04T09:29:22;98689.91;;;3.09;57.08
49194;BME280;35029;50.804;12.866;2023-04-04T09:31:49;98688.53;;;3.26;56.49
49194;BME280;35029;50.804;12.866;2023-04-04T09:34:17;98687.09;;;3.33;56.04
49194;BME280;35029;50.804;12.866;2023-04-04T09:36:46;98690.78;;;3.30;55.62
49194;BME280;35029;50.804;12.866;2023-04-04T09:39:13;98684.88;;;3.49;57.43
49194;BME280;35029;50.804;12.866;2023-04-04T09:41:43;98684.59;;;3.52;53.52
49194;BME280;35029;50.804;12.866;2023-04-04T09:44:10;98681.13;;;4.25;53.88
49194;BME280;35029;50.804;12.866;2023-04-04T09:46:38;98654.63;;;4.79;54.10
49194;BME280;35029;50.804;12.866;2023-04-04T09:49:04;98687.31;;;5.45;52.82
49194;BME280;35029;50.804;12.866;2023-04-04T09:51:33;98659.56;;;5.80;51.07
49194;BME280;35029;50.804;12.866;2023-04-04T09:54:03;98670.78;;;5.82;49.70
49194;BME280;35029;50.804;12.866;2023-04-04T09:56:34;98690.75;;;5.45;47.13
49194;BME280;35029;50.804;12.866;2023-04-04T09:59:05;98686.63;;;4.43;46.71
49194;BME280;35029;50.804;12.866;2023-04-04T10:01:32;98673.19;;;4.05;50.63
49194;BME280;35029;50.804;12.866;2023-04-04T10:03:57;98695.09;;;3.95;51.20
49194;BME280;35029;50.804;12.866;2023-04-04T10:06:23;98697.31;;;3.99;53.00
49194;BME280;35029;50.804;12.866;2023-04-04T10:08:51;98677.34;;;3.87;51.35
49194;BME280;35029;50.804;12.866;2023-04-04T10:11:28;98701.38;;;3.82;50.58
49194;BME280;35029;50.804;12.866;2023-04-04T10:13:55;98690.38;;;3.67;50.52
49194;BME280;35029;50.804;12.866;2023-04-04T10:16:23;98693.88;;;4.30;51.00
49194;BME280;35029;50.804;12.866;2023-04-04T10:18:48;98691.47;;;4.17;49.59
49194;BME280;35029;50.804;12.866;2023-04-04T10:21:16;98682.78;;;3.95;49.72
49194;BME280;35029;50.804;12.866;2023-04-04T10:23:44;98692.59;;;3.51;49.89
49194;BME280;35029;50.804;12.866;2023-04-04T10:26:10;98690.13;;;3.38;51.83
49194;BME280;35029;50.804;12.866;2023-04-04T10:28:37;98694.69;;;3.36;51.96
49194;BME280;35029;50.804;12.866;2023-04-04T10:31:15;98693.22;;;3.43;51.38
49194;BME280;35029;50.804;12.866;2023-04-04T10:36:30;98692.34;;;3.54;48.20
49194;BME280;35029;50.804;12.866;2023-04-04T10:41:38;98677.94;;;3.69;48.12
49194;BME280;35029;50.804;12.866;2023-04-04T10:44:19;98676.16;;;4.63;48.59
49194;BME280;35029;50.804;12.866;2023-04-04T10:46:52;98680.81;;;5.39;45.95
49194;BME280;35029;50.804;12.866;2023-04-04T10:49:18;98656.34;;;6.05;45.09
49194;BME280;35029;50.804;12.866;2023-04-04T10:51:46;98676.13;;;6.47;46.37
49194;BME280;35029;50.804;12.866;2023-04-04T10:54:12;98687.41;;;5.63;44.94
49194;BME280;35029;50.804;12.866;2023-04-04T10:56:38;98679.16;;;5.18;44.53
49194;BME280;35029;50.804;12.866;2023-04-04T10:59:15;98680.06;;;4.78;46.66
49194;BME280;35029;50.804;12.866;2023-04-04T11:02:01;98681.56;;;4.71;46.84
49194;BME280;35029;50.804;12.866;2023-04-04T11:04:34;98671.03;;;4.51;47.91
49194;BME280;35029;50.804;12.866;2023-04-04T11:09:55;98651.72;;;5.11;46.33
49194;BME280;35029;50.804;12.866;2023-04-04T11:12:31;98675.53;;;4.90;47.28
49194;BME280;35029;50.804;12.866;2023-04-04T11:17:57;98669.06;;;4.53;45.90
49194;BME280;35029;50.804;12.866;2023-04-04T11:20:28;98671.56;;;4.55;48.51
49194;BME280;35029;50.804;12.866;2023-04-04T11:23:08;98670.66;;;4.35;45.93
49194;BME280;35029;50.804;12.866;2023-04-04T11:25:34;98675.88;;;4.25;45.99
49194;BME280;35029;50.804;12.866;2023-04-04T11:28:10;98661.28;;;4.32;46.34
49194;BME280;35029;50.804;12.866;2023-04-04T11:30:38;98665.66;;;4.72;45.01
49194;BME280;35029;50.804;12.866;2023-04-04T11:33:10;98653.81;;;5.17;45.68
49194;BME280;35029;50.804;12.866;2023-04-04T11:35:45;98649.19;;;5.78;44.32
49194;BME280;35029;50.804;12.866;2023-04-04T11:38:12;98649.59;;;6.31;44.59
49194;BME280;35029;50.804;12.866;2023-04-04T11:40:39;98645.22;;;6.67;43.48
49194;BME280;35029;50.804;12.866;2023-04-04T11:43:09;98631.72;;;5.87;41.80
49194;BME280;35029;50.804;12.866;2023-04-04T11:45:35;98639.41;;;5.41;43.05
49194;BME280;35029;50.804;12.866;2023-04-04T11:48:05;98641.16;;;5.70;45.84
49194;BME280;35029;50.804;12.866;2023-04-04T11:50:38;98635.88;;;6.27;42.98
49194;BME280;35029;50.804;12.866;2023-04-04T11:53:06;98623.09;;;6.60;42.40
49194;BME280;35029;50.804;12.866;2023-04-04T11:55:32;98607.94;;;6.44;39.27
49194;BME280;35029;50.804;12.866;2023-04-04T11:58:14;98628.22;;;6.06;42.16
49194;BME280;35029;50.804;12.866;2023-04-04T12:00:40;98625.00;;;5.45;41.90
49194;BME280;35029;50.804;12.866;2023-04-04T12:03:08;98644.13;;;4.98;45.13
49194;BME280;35029;50.804;12.866;2023-04-04T12:05:45;98623.25;;;4.97;46.89
49194;BME280;35029;50.804;12.866;2023-04-04T12:08:11;98626.00;;;5.15;44.07
49194;BME280;35029;50.804;12.866;2023-04-04T12:10:39;98605.19;;;6.08;43.90
49194;BME280;35029;50.804;12.866;2023-04-04T12:13:06;98624.69;;;6.71;40.41
49194;BME280;35029;50.804;12.866;2023-04-04T12:15:34;98626.50;;;7.24;40.00
49194;BME280;35029;50.804;12.866;2023-04-04T12:18:00;98621.16;;;7.60;39.27
49194;BME280;35029;50.804;12.866;2023-04-04T12:20:26;98608.97;;;7.59;38.21
49194;BME280;35029;50.804;12.866;2023-04-04T12:22:52;98602.69;;;7.87;37.87
49194;BME280;35029;50.804;12.866;2023-04-04T12:25:21;98608.78;;;8.22;37.12
49194;BME280;35029;50.804;12.866;2023-04-04T12:27:49;98602.84;;;7.59;38.52
49194;BME280;35029;50.804;12.866;2023-04-04T12:30:16;98596.59;;;6.43;37.41
49194;BME280;35029;50.804;12.866;2023-04-04T12:32:46;98606.25;;;5.78;41.30
49194;BME280;35029;50.804;12.866;2023-04-04T12:35:12;98605.69;;;6.21;39.88
49194;BME280;35029;50.804;12.866;2023-04-04T12:37:55;98605.31;;;6.62;39.31
49194;BME280;35029;50.804;12.866;2023-04-04T12:40:21;98599.47;;;6.86;36.88
49194;BME280;35029;50.804;12.866;2023-04-04T12:42:47;98594.22;;;7.31;38.71
49194;BME280;35029;50.804;12.866;2023-04-04T12:45:13;98577.47;;;7.40;36.63
49194;BME280;35029;50.804;12.866;2023-04-04T12:47:59;98586.94;;;7.77;36.89
49194;BME280;35029;50.804;12.866;2023-04-04T12:50:26;98592.16;;;8.29;36.78
49194;BME280;35029;50.804;12.866;2023-04-04T12:52:52;98586.50;;;8.59;37.83
49194;BME280;35029;50.804;12.866;2023-04-04T12:55:22;98570.34;;;9.03;36.36
49194;BME280;35029;50.804;12.866;2023-04-04T12:57:49;98571.03;;;8.38;35.30
49194;BME280;35029;50.804;12.866;2023-04-04T13:00:15;98548.41;;;7.32;37.10
49194;BME280;35029;50.804;12.866;2023-04-04T13:02:45;98571.69;;;6.74;39.52
49194;BME280;35029;50.804;12.866;2023-04-04T13:05:14;98568.22;;;6.73;39.35
49194;BME280;35029;50.804;12.866;2023-04-04T13:07:40;98570.22;;;7.16;38.13
49194;BME280;35029;50.804;12.866;2023-04-04T13:10:11;98569.28;;;6.99;39.87
49194;BME280;35029;50.804;12.866;2023-04-04T13:12:52;98572.69;;;7.61;37.85
49194;BME280;35029;50.804;12.866;2023-04-04T13:15:21;98562.50;;;8.09;38.66